createdAt,value
2023-01-23T00:01:34.331Z,102841.75
2023-01-23T00:04:01.902Z,102832.97
2023-01-23T00:06:29.536Z,102832.13
2023-01-23T00:08:57.345Z,102832.09
2023-01-23T00:11:25.558Z,102843.50
2023-01-23T00:13:53.042Z,102821.53
2023-01-23T00:16:21.304Z,102819.84
2023-01-23T00:18:50.832Z,102834.75
2023-01-23T00:21:18.780Z,102833.03
2023-01-23T00:23:46.861Z,102836.53
2023-01-23T00:26:15.603Z,102823.31
2023-01-23T00:28:43.426Z,102826.88
2023-01-23T00:31:12.897Z,102824.19
2023-01-23T00:33:40.610Z,102829.44
2023-01-23T00:36:09.962Z,102837.22
2023-01-23T00:38:37.464Z,102843.47
2023-01-23T00:41:05.070Z,102839.09
2023-01-23T00:43:32.563Z,102840.00
2023-01-23T00:46:00.228Z,102832.81
2023-01-23T00:48:27.911Z,102831.13
2023-01-23T00:50:55.563Z,102843.47
2023-01-23T00:53:24.617Z,102847.75
2023-01-23T00:55:53.461Z,102856.47
2023-01-23T00:58:20.974Z,102848.59
2023-01-23T01:00:48.504Z,102836.25
2023-01-23T01:03:16.037Z,102848.56
2023-01-23T01:05:43.562Z,102853.00
2023-01-23T01:08:11.064Z,102853.75
2023-01-23T01:10:41.796Z,102849.44
2023-01-23T01:13:09.725Z,102849.28
2023-01-23T01:15:37.430Z,102855.50
2023-01-23T01:18:05.024Z,102851.88
2023-01-23T01:20:32.561Z,102852.81
2023-01-23T01:23:00.536Z,102859.09
2023-01-23T01:25:28.067Z,102873.13
2023-01-23T01:27:57.010Z,102870.50
2023-01-23T01:30:25.816Z,102875.75
2023-01-23T01:32:53.328Z,102872.22
2023-01-23T01:35:21.079Z,102877.47
2023-01-23T01:37:48.581Z,102867.69
2023-01-23T01:40:16.600Z,102878.25
2023-01-23T01:42:44.776Z,102880.91
2023-01-23T01:45:30.947Z,102875.72
2023-01-23T01:48:00.147Z,102872.25
2023-01-23T01:50:27.611Z,102873.13
2023-01-23T01:52:55.146Z,102863.50
2023-01-23T01:55:22.651Z,102874.84
2023-01-23T01:57:54.235Z,102874.81
2023-01-23T02:00:22.082Z,102880.13
2023-01-23T02:02:50.526Z,102849.25
2023-01-23T02:05:20.094Z,102861.75
2023-01-23T02:07:48.374Z,102851.94
2023-01-23T02:10:16.661Z,102850.06
2023-01-23T02:12:46.097Z,102849.25
2023-01-23T02:15:13.634Z,102854.47
2023-01-23T02:17:41.188Z,102862.41
2023-01-23T02:20:10.419Z,102858.94
2023-01-23T02:22:41.754Z,102860.72
2023-01-23T02:25:10.817Z,102878.38
2023-01-23T02:27:39.683Z,102860.84
2023-01-23T02:30:08.645Z,102863.47
2023-01-23T02:32:36.226Z,102887.09
2023-01-23T02:35:06.741Z,102878.34
2023-01-23T02:37:35.538Z,102888.81
2023-01-23T02:40:03.659Z,102885.34
2023-01-23T02:42:31.273Z,102880.13
2023-01-23T02:45:00.402Z,102872.22
2023-01-23T02:47:29.514Z,102861.59
2023-01-23T02:49:57.063Z,102855.38
2023-01-23T02:52:24.637Z,102868.69
2023-01-23T02:54:52.422Z,102883.53
2023-01-23T02:57:19.944Z,102874.69
2023-01-23T03:00:04.797Z,102870.34
2023-01-23T03:02:33.788Z,102891.47
2023-01-23T03:05:01.286Z,102891.44
2023-01-23T03:07:28.820Z,102885.31
2023-01-23T03:09:56.299Z,102894.94
2023-01-23T03:12:23.846Z,102882.66
2023-01-23T03:14:54.786Z,102901.94
2023-01-23T03:17:22.348Z,102895.81
2023-01-23T03:19:51.192Z,102895.81
2023-01-23T03:22:18.709Z,102891.41
2023-01-23T03:24:46.220Z,102893.94
2023-01-23T03:27:13.694Z,102899.28
2023-01-23T03:29:58.629Z,102881.72
2023-01-23T03:32:26.638Z,102891.31
2023-01-23T03:34:55.545Z,102895.72
2023-01-23T03:37:23.059Z,102891.31
2023-01-23T03:40:08.176Z,102886.81
2023-01-23T03:42:35.976Z,102882.34
2023-01-23T03:45:03.606Z,102891.13
2023-01-23T03:47:31.102Z,102886.56
2023-01-23T03:49:59.938Z,102881.22
2023-01-23T03:52:27.542Z,102886.53
2023-01-23T03:54:55.112Z,102897.13
2023-01-23T03:57:22.624Z,102899.78
2023-01-23T03:59:50.170Z,102895.50
2023-01-23T04:02:17.685Z,102900.72
2023-01-23T04:04:45.282Z,102910.50
2023-01-23T04:07:14.357Z,102895.53
2023-01-23T04:09:41.852Z,102908.81
2023-01-23T04:12:09.350Z,102890.91
2023-01-23T04:14:37.671Z,102895.44
2023-01-23T04:17:05.381Z,102913.03
2023-01-23T04:19:32.941Z,102898.09
2023-01-23T04:22:00.387Z,102901.59
2023-01-23T04:24:29.270Z,102902.50
2023-01-23T04:26:57.028Z,102907.66
2023-01-23T04:29:24.994Z,102884.72
2023-01-23T04:31:52.530Z,102903.34
2023-01-23T04:34:20.102Z,102916.59
2023-01-23T04:36:47.647Z,102912.13
2023-01-23T04:39:15.186Z,102904.19
2023-01-23T04:41:44.001Z,102891.78
2023-01-23T04:44:24.332Z,102914.91
2023-01-23T04:46:52.984Z,102926.22
2023-01-23T04:49:20.967Z,102919.16
2023-01-23T04:51:48.897Z,102910.34
2023-01-23T04:54:16.475Z,102895.31
2023-01-23T04:56:45.452Z,102911.19
2023-01-23T04:59:13.115Z,102911.13
2023-01-23T05:01:40.758Z,102934.06
2023-01-23T05:04:08.287Z,102930.53
2023-01-23T05:06:35.775Z,102926.13
2023-01-23T05:09:03.320Z,102920.81
2023-01-23T05:11:31.055Z,102912.84
2023-01-23T05:13:59.923Z,102905.78
2023-01-23T05:16:27.401Z,102918.16
2023-01-23T05:18:55.071Z,102922.47
2023-01-23T05:21:22.734Z,102925.94
2023-01-23T05:23:50.349Z,102926.88
2023-01-23T05:26:18.023Z,102944.50
2023-01-23T05:28:45.778Z,102942.53
2023-01-23T05:31:14.887Z,102951.44
2023-01-23T05:33:42.647Z,102943.56
2023-01-23T05:36:10.535Z,102938.66
2023-01-23T05:38:38.264Z,102959.06
2023-01-23T05:41:06.216Z,102949.41
2023-01-23T05:43:33.963Z,102952.72
2023-01-23T05:46:02.006Z,102953.66
2023-01-23T05:48:31.201Z,102956.28
2023-01-23T05:50:58.896Z,102967.13
2023-01-23T05:53:26.623Z,102968.91
2023-01-23T05:55:54.289Z,102970.56
2023-01-23T05:58:23.125Z,102980.19
2023-01-23T06:00:50.818Z,102962.41
2023-01-23T06:03:18.537Z,102980.16
2023-01-23T06:05:47.586Z,102988.19
2023-01-23T06:08:15.255Z,102977.53
2023-01-23T06:10:43.486Z,102974.78
2023-01-23T06:13:11.220Z,102972.03
2023-01-23T06:15:38.903Z,102966.78
2023-01-23T06:18:06.601Z,102946.38
2023-01-23T06:20:34.230Z,102967.66
2023-01-23T06:23:03.275Z,102985.38
2023-01-23T06:25:30.993Z,102967.72
2023-01-23T06:27:58.759Z,102969.44
2023-01-23T06:30:26.486Z,102968.66
2023-01-23T06:32:54.152Z,102963.28
2023-01-23T06:35:22.123Z,102979.84
2023-01-23T06:37:50.251Z,102969.44
2023-01-23T06:40:20.260Z,102982.75
2023-01-23T06:42:48.149Z,102963.94
2023-01-23T06:45:15.839Z,102964.97
2023-01-23T06:47:43.569Z,102980.06
2023-01-23T06:50:11.870Z,102979.19
2023-01-23T06:52:39.546Z,102981.53
2023-01-23T06:55:07.882Z,102994.88
2023-01-23T06:57:37.028Z,102965.47
2023-01-23T07:00:06.331Z,102974.34
2023-01-23T07:02:34.072Z,102992.75
2023-01-23T07:05:02.169Z,102997.34
2023-01-23T07:07:29.794Z,102985.75
2023-01-23T07:09:57.446Z,102996.44
2023-01-23T07:12:25.154Z,102990.84
2023-01-23T07:14:54.199Z,102987.28
2023-01-23T07:17:21.913Z,103007.69
2023-01-23T07:19:49.768Z,102989.03
2023-01-23T07:22:18.556Z,103007.00
2023-01-23T07:24:46.254Z,103007.06
2023-01-23T07:27:14.290Z,102998.06
2023-01-23T07:29:42.031Z,103004.88
2023-01-23T07:32:11.417Z,103013.97
2023-01-23T07:34:39.122Z,103021.06
2023-01-23T07:37:06.996Z,103003.03
2023-01-23T07:39:34.688Z,103028.91
2023-01-23T07:42:02.327Z,103014.03
2023-01-23T07:44:30.050Z,103006.47
2023-01-23T07:46:57.744Z,103022.59
2023-01-23T07:49:26.816Z,103038.59
2023-01-23T07:51:54.434Z,103046.16
2023-01-23T07:54:22.160Z,103043.59
2023-01-23T07:56:50.946Z,103056.84
2023-01-23T07:59:18.765Z,103041.75
2023-01-23T08:01:46.424Z,103060.38
2023-01-23T08:04:14.217Z,103052.31
2023-01-23T08:06:43.326Z,103058.59
2023-01-23T08:09:11.079Z,103070.06
2023-01-23T08:11:38.792Z,103074.56
2023-01-23T08:14:06.588Z,103058.81
2023-01-23T08:16:34.318Z,103071.16
2023-01-23T08:19:02.022Z,103069.19
2023-01-23T08:21:29.697Z,103072.56
2023-01-23T08:23:58.685Z,103068.28
2023-01-23T08:26:26.314Z,103067.31
2023-01-23T08:28:54.199Z,103068.03
2023-01-23T08:31:22.048Z,103062.97
2023-01-23T08:33:49.848Z,103086.00
2023-01-23T08:36:17.497Z,103068.28
2023-01-23T08:38:45.153Z,103077.09
2023-01-23T08:41:14.210Z,103069.09
2023-01-23T08:43:42.430Z,103066.41
2023-01-23T08:46:11.169Z,103075.22
2023-01-23T08:48:38.870Z,103079.69
2023-01-23T08:51:08.670Z,103077.94
2023-01-23T08:53:36.477Z,103075.38
2023-01-23T08:56:06.345Z,103083.38
2023-01-23T08:58:35.881Z,103080.69
2023-01-23T09:01:03.650Z,103064.66
2023-01-23T09:03:31.402Z,103069.88
2023-01-23T09:06:01.884Z,103078.72
2023-01-23T09:08:29.570Z,103087.66
2023-01-23T09:11:01.034Z,103077.88
2023-01-23T09:13:28.738Z,103073.53
2023-01-23T09:15:57.854Z,103079.00
2023-01-23T09:18:25.938Z,103090.47
2023-01-23T09:20:53.726Z,103082.53
2023-01-23T09:23:21.700Z,103081.69
2023-01-23T09:25:49.349Z,103084.25
2023-01-23T09:28:17.031Z,103080.75
2023-01-23T09:30:44.804Z,103083.34
2023-01-23T09:33:13.842Z,103071.69
2023-01-23T09:35:41.562Z,103071.75
2023-01-23T09:38:09.205Z,103076.31
2023-01-23T09:40:49.695Z,103086.97
2023-01-23T09:43:21.675Z,103100.19
2023-01-23T09:45:57.679Z,103103.69
2023-01-23T09:48:29.496Z,103102.81
2023-01-23T09:51:00.713Z,103096.66
2023-01-23T09:53:35.316Z,103088.81
2023-01-23T09:56:08.338Z,103089.69
2023-01-23T09:58:39.222Z,103115.00
2023-01-23T10:01:06.909Z,103103.69
2023-01-23T10:03:36.261Z,103102.81
2023-01-23T10:06:16.428Z,103093.19
2023-01-23T10:08:51.342Z,103085.31
2023-01-23T10:11:24.853Z,103118.53
2023-01-23T10:14:03.400Z,103086.94
2023-01-23T10:17:07.435Z,103092.22
2023-01-23T10:19:46.962Z,103083.44
2023-01-23T10:22:28.942Z,103105.31
2023-01-23T10:24:58.342Z,103099.16
2023-01-23T10:27:33.826Z,103116.75
2023-01-23T10:30:06.167Z,103096.25
2023-01-23T10:32:43.770Z,103118.47
2023-01-23T10:35:15.072Z,103118.50
2023-01-23T10:37:46.210Z,103086.84
2023-01-23T10:40:15.780Z,103108.81
2023-01-23T10:42:43.476Z,103101.84
2023-01-23T10:45:18.463Z,103109.75
2023-01-23T10:47:51.981Z,103100.03
2023-01-23T10:50:35.741Z,103106.28
2023-01-23T10:53:08.876Z,103101.78
2023-01-23T10:55:36.903Z,103108.91
2023-01-23T10:58:06.769Z,103129.81
2023-01-23T11:00:36.902Z,103119.41
2023-01-23T11:03:28.626Z,103108.91
2023-01-23T11:06:02.675Z,103094.94
2023-01-23T11:08:32.518Z,103105.41
2023-01-23T11:11:20.354Z,103100.19
2023-01-23T11:13:49.272Z,103108.03
2023-01-23T11:16:18.854Z,103090.47
2023-01-23T11:18:51.257Z,103091.31
2023-01-23T11:21:23.976Z,103101.91
2023-01-23T11:24:09.159Z,103123.75
2023-01-23T11:26:38.651Z,103128.91
2023-01-23T11:29:22.093Z,103115.91
2023-01-23T11:31:51.086Z,103119.34
2023-01-23T11:34:21.310Z,103115.06
2023-01-23T11:36:54.519Z,103104.50
2023-01-23T11:39:34.781Z,103115.91
2023-01-23T11:42:02.606Z,103122.00
2023-01-23T11:44:38.065Z,103103.63
2023-01-23T11:47:43.990Z,103103.63
2023-01-23T11:50:46.594Z,103114.16
2023-01-23T11:53:36.980Z,103115.00
2023-01-23T11:56:37.020Z,103112.38
2023-01-23T11:59:34.527Z,103090.41
2023-01-23T12:02:17.715Z,103110.66
2023-01-23T12:05:02.845Z,103120.25
2023-01-23T12:07:37.035Z,103130.66
2023-01-23T12:10:12.687Z,103099.31
2023-01-23T12:12:52.134Z,103114.19
2023-01-23T12:15:28.488Z,103115.00
2023-01-23T12:18:02.849Z,103114.16
2023-01-23T12:20:42.747Z,103102.81
2023-01-23T12:23:21.245Z,103089.69
2023-01-23T12:25:56.466Z,103089.72
2023-01-23T12:28:32.234Z,103094.88
2023-01-23T12:31:15.644Z,103086.22
2023-01-23T12:33:53.918Z,103087.06
2023-01-23T12:36:29.689Z,103094.97
2023-01-23T12:39:05.967Z,103103.69
2023-01-23T12:41:37.998Z,103108.84
2023-01-23T12:44:13.613Z,103094.09
2023-01-23T12:46:46.028Z,103088.81
2023-01-23T12:49:25.280Z,103086.22
2023-01-23T12:51:58.882Z,103081.84
2023-01-23T12:54:34.777Z,103095.81
2023-01-23T12:57:05.624Z,103085.31
2023-01-23T12:59:42.763Z,103084.47
2023-01-23T13:02:15.668Z,103072.13
2023-01-23T13:05:00.492Z,103088.75
2023-01-23T13:07:37.973Z,103106.28
2023-01-23T13:10:18.345Z,103105.44
2023-01-23T13:12:47.795Z,103108.94
2023-01-23T13:15:38.869Z,103101.94
2023-01-23T13:18:22.408Z,103099.34
2023-01-23T13:21:14.946Z,103080.94
2023-01-23T13:23:42.686Z,103094.03
2023-01-23T13:26:31.103Z,103100.19
2023-01-23T13:29:03.661Z,103098.44
2023-01-23T13:31:41.098Z,103087.94
2023-01-23T13:34:38.046Z,103102.81
2023-01-23T13:37:33.635Z,103088.78
2023-01-23T13:40:15.078Z,103110.66
2023-01-23T13:42:42.822Z,103103.66
2023-01-23T13:45:33.165Z,103080.63
2023-01-23T14:25:20.175Z,103103.66
2023-01-23T14:27:53.600Z,103099.22
2023-01-23T14:30:24.723Z,103095.78
2023-01-23T14:32:52.441Z,103098.44
2023-01-23T14:35:25.726Z,103087.06
2023-01-23T14:37:55.887Z,103091.47
2023-01-23T14:40:28.049Z,103077.47
2023-01-23T14:43:01.229Z,103069.59
2023-01-23T14:45:32.910Z,103070.50
2023-01-23T14:48:08.739Z,103063.50
2023-01-23T14:50:38.083Z,103061.75
2023-01-23T14:53:07.429Z,103054.78
2023-01-23T14:55:37.968Z,103053.03
2023-01-23T14:58:07.423Z,103041.59
2023-01-23T15:00:35.876Z,103045.09
2023-01-23T15:03:05.259Z,103055.66
2023-01-23T15:05:33.568Z,103053.03
2023-01-23T15:08:05.972Z,103063.50
2023-01-23T15:10:37.093Z,103065.25
2023-01-23T15:13:06.541Z,103067.88
2023-01-23T15:15:35.599Z,103068.75
2023-01-23T15:18:05.721Z,103064.38
2023-01-23T15:20:38.325Z,103056.53
2023-01-23T15:23:28.169Z,103049.53
2023-01-23T15:26:23.811Z,103059.13
2023-01-23T15:28:53.390Z,103048.66
2023-01-23T15:31:42.674Z,103065.25
2023-01-23T15:34:21.339Z,103040.75
2023-01-23T15:36:51.417Z,103044.22
2023-01-23T15:39:23.567Z,103044.16
2023-01-23T15:41:53.011Z,103062.63
2023-01-23T15:44:22.724Z,103069.63
2023-01-23T15:46:50.747Z,103067.00
2023-01-23T15:49:25.341Z,103067.88
2023-01-23T15:51:56.504Z,103066.13
2023-01-23T15:54:29.456Z,103058.16
2023-01-23T15:57:07.083Z,103058.22
2023-01-23T15:59:36.792Z,103059.00
2023-01-23T16:02:04.766Z,103084.47
2023-01-23T16:04:32.504Z,103077.47
2023-01-23T16:07:01.097Z,103086.22
2023-01-23T16:09:32.726Z,103076.59
2023-01-23T16:12:00.995Z,103083.59
2023-01-23T16:14:29.261Z,103083.59
2023-01-23T16:17:04.701Z,103084.47
2023-01-23T16:19:39.435Z,103088.81
2023-01-23T16:22:07.096Z,103095.81
2023-01-23T16:24:38.250Z,103088.84
2023-01-23T16:27:06.973Z,103084.47
2023-01-23T16:29:35.541Z,103074.78
2023-01-23T16:32:04.428Z,103082.72
2023-01-23T16:34:32.141Z,103080.97
2023-01-23T16:37:00.812Z,103108.06
2023-01-23T16:39:31.196Z,103097.56
2023-01-23T16:42:00.651Z,103108.03
2023-01-23T16:44:28.307Z,103115.03
2023-01-23T16:46:55.961Z,103108.94
2023-01-23T16:49:23.729Z,103103.66
2023-01-23T16:51:58.052Z,103108.78
2023-01-23T16:54:26.186Z,103110.53
2023-01-23T16:56:54.874Z,103094.78
2023-01-23T16:59:29.349Z,103113.25
2023-01-23T17:01:57.074Z,103106.13
2023-01-23T17:04:24.919Z,103123.72
2023-01-23T17:06:52.650Z,103123.72
2023-01-23T17:09:20.348Z,103123.78
2023-01-23T17:11:50.197Z,103114.13
2023-01-23T17:14:20.652Z,103098.31
2023-01-23T17:16:50.778Z,103105.31
2023-01-23T17:19:22.957Z,103114.03
2023-01-23T17:21:51.877Z,103112.31
2023-01-23T17:24:19.965Z,103120.16
2023-01-23T17:26:47.750Z,103100.88
2023-01-23T17:29:16.092Z,103122.84
2023-01-23T17:31:44.058Z,103118.47
2023-01-23T17:34:20.030Z,103123.72
2023-01-23T17:36:47.760Z,103122.84
2023-01-23T17:39:15.551Z,103119.16
2023-01-23T17:41:43.185Z,103134.19
2023-01-23T17:44:10.902Z,103126.28
2023-01-23T17:46:39.528Z,103122.66
2023-01-23T17:49:22.119Z,103139.41
2023-01-23T17:51:49.799Z,103147.31
2023-01-23T17:54:20.593Z,103139.44
2023-01-23T17:56:48.320Z,103138.31
2023-01-23T17:59:15.958Z,103166.53
2023-01-23T18:01:43.680Z,103153.31
2023-01-23T18:04:16.596Z,103147.84
2023-01-23T18:06:45.741Z,103148.94
2023-01-23T18:09:14.098Z,103141.06
2023-01-23T18:11:49.734Z,103142.91
2023-01-23T18:14:33.131Z,103146.28
2023-01-23T18:17:01.343Z,103158.69
2023-01-23T18:19:30.234Z,103165.69
2023-01-23T18:21:59.857Z,103161.38
2023-01-23T18:24:30.178Z,103144.66
2023-01-23T18:27:02.318Z,103145.53
2023-01-23T18:29:40.756Z,103133.03
2023-01-23T18:32:24.693Z,103152.44
2023-01-23T18:34:56.685Z,103135.53
2023-01-23T18:37:31.177Z,103147.97
2023-01-23T18:40:02.669Z,103163.03
2023-01-23T18:42:34.712Z,103132.75
2023-01-23T18:45:05.701Z,103159.25
2023-01-23T18:47:33.679Z,103173.50
2023-01-23T18:50:01.784Z,103165.53
2023-01-23T18:52:43.024Z,103157.38
2023-01-23T18:55:17.089Z,103161.00
2023-01-23T18:57:54.275Z,103182.25
2023-01-23T19:00:26.445Z,103157.63
2023-01-23T19:02:57.808Z,103154.13
2023-01-23T19:05:31.101Z,103163.75
2023-01-23T19:08:01.332Z,103169.16
2023-01-23T19:10:40.173Z,103169.09
2023-01-23T19:13:20.180Z,103164.66
2023-01-23T19:15:55.480Z,103148.59
2023-01-23T19:18:43.831Z,103148.50
2023-01-23T19:21:23.430Z,103164.53
2023-01-23T19:23:57.821Z,103165.13
2023-01-23T19:26:27.701Z,103157.28
2023-01-23T19:28:56.060Z,103169.78
2023-01-23T19:31:25.367Z,103176.84
2023-01-23T19:33:53.141Z,103183.84
2023-01-23T19:36:21.684Z,103172.31
2023-01-23T19:38:49.655Z,103173.03
2023-01-23T19:41:21.003Z,103174.50
2023-01-23T19:43:50.451Z,103178.94
2023-01-23T19:46:18.584Z,103196.06
2023-01-23T19:48:46.305Z,103195.16
2023-01-23T19:51:14.956Z,103179.97
2023-01-23T19:53:42.670Z,103182.41
2023-01-23T19:56:12.238Z,103192.38
2023-01-23T19:58:41.582Z,103182.84
2023-01-23T20:01:18.326Z,103183.41
2023-01-23T20:03:46.043Z,103197.00
2023-01-23T20:06:13.703Z,103169.41
2023-01-23T20:08:41.427Z,103189.94
2023-01-23T20:11:10.948Z,103177.34
2023-01-23T20:13:38.775Z,103178.38
2023-01-23T20:16:15.381Z,103191.63
2023-01-23T20:18:43.223Z,103176.44
2023-01-23T20:21:11.226Z,103179.06
2023-01-23T20:23:38.928Z,103185.22
2023-01-23T20:26:06.833Z,103184.50
2023-01-23T20:28:34.485Z,103171.88
2023-01-23T20:31:05.098Z,103178.09
2023-01-23T20:33:34.626Z,103172.72
2023-01-23T20:36:02.325Z,103191.56
2023-01-23T20:38:30.007Z,103180.84
2023-01-23T20:41:03.748Z,103180.81
2023-01-23T20:43:31.438Z,103169.16
2023-01-23T20:45:59.178Z,103182.81
2023-01-23T20:48:26.914Z,103171.16
2023-01-23T20:50:57.586Z,103174.44
2023-01-23T20:53:30.362Z,103187.16
2023-01-23T20:55:59.463Z,103187.97
2023-01-23T20:58:45.181Z,103171.00
2023-01-23T21:01:13.673Z,103184.53
2023-01-23T21:03:42.148Z,103181.91
2023-01-23T21:06:11.432Z,103190.75
2023-01-23T21:08:39.062Z,103191.59
2023-01-23T21:11:07.088Z,103190.75
2023-01-23T21:13:34.583Z,103187.25
2023-01-23T21:16:02.654Z,103183.75
2023-01-23T21:18:30.241Z,103205.63
2023-01-23T21:21:02.490Z,103195.91
2023-01-23T21:23:31.394Z,103212.66
2023-01-23T21:25:59.153Z,103205.63
2023-01-23T21:28:26.734Z,103206.38
2023-01-23T21:30:54.235Z,103195.69
2023-01-23T21:33:21.894Z,103196.38
2023-01-23T21:35:50.157Z,103188.25
2023-01-23T21:38:17.693Z,103198.06
2023-01-23T21:40:46.557Z,103200.88
2023-01-23T21:43:14.614Z,103200.03
2023-01-23T21:45:42.389Z,103203.47
2023-01-23T21:48:09.820Z,103203.31
2023-01-23T21:50:37.369Z,103198.22
2023-01-23T21:53:04.897Z,103213.28
2023-01-23T21:55:32.382Z,103189.06
2023-01-23T21:58:01.220Z,103188.31
2023-01-23T22:00:46.113Z,103226.56
2023-01-23T22:03:13.596Z,103210.22
2023-01-23T22:05:41.073Z,103199.59
2023-01-23T22:08:08.562Z,103218.88
2023-01-23T22:10:36.447Z,103217.28
2023-01-23T22:13:05.319Z,103225.09
2023-01-23T22:15:32.910Z,103217.97
2023-01-23T22:18:00.456Z,103232.91
2023-01-23T22:20:27.951Z,103224.31
2023-01-23T22:22:55.446Z,103248.13
2023-01-23T22:25:23.331Z,103234.72
2023-01-23T22:27:50.985Z,103235.50
2023-01-23T22:30:20.054Z,103232.09
2023-01-23T22:32:47.554Z,103223.97
2023-01-23T22:35:15.104Z,103241.66
2023-01-23T22:37:44.146Z,103229.44
2023-01-23T22:40:12.195Z,103236.63
2023-01-23T22:42:39.814Z,103225.03
2023-01-23T22:45:09.766Z,103234.03
2023-01-23T22:47:38.765Z,103226.16
2023-01-23T22:50:06.581Z,103221.66
2023-01-23T22:52:35.024Z,103222.56
2023-01-23T22:55:02.816Z,103235.25
2023-01-23T22:57:30.290Z,103223.41
2023-01-23T22:59:57.764Z,103210.84
2023-01-23T23:02:25.290Z,103238.63
2023-01-23T23:04:54.143Z,103227.94
2023-01-23T23:07:21.654Z,103233.38
2023-01-23T23:09:49.171Z,103210.94
2023-01-23T23:12:16.657Z,103227.19
2023-01-23T23:14:44.186Z,103209.53
2023-01-23T23:17:11.664Z,103223.78
2023-01-23T23:19:39.691Z,103218.69
2023-01-23T23:22:08.497Z,103206.34
2023-01-23T23:24:36.004Z,103200.91
2023-01-23T23:27:03.547Z,103215.22
2023-01-23T23:29:31.074Z,103204.38
2023-01-23T23:31:58.668Z,103214.97
2023-01-23T23:34:26.243Z,103225.63
2023-01-23T23:36:53.734Z,103233.47
2023-01-23T23:39:22.629Z,103216.75
2023-01-23T23:41:50.106Z,103220.94
2023-01-23T23:44:17.595Z,103215.63
2023-01-23T23:46:45.122Z,103227.03
2023-01-23T23:49:12.568Z,103206.69
2023-01-23T23:51:40.051Z,103206.72
2023-01-23T23:54:07.516Z,103206.88
2023-01-23T23:56:36.319Z,103201.56
2023-01-23T23:59:03.827Z,103202.34
